Time;durP1;ratioP1;P1;durP2;ratioP2;P2;SDS_P1;SDS_P2;PMS_P1;PMS_P2;Temp;Humidity;BMP_temperature;BMP_pressure;BME280_temperature;BME280_humidity;BME280_pressure;Samples;Min_cycle;Max_cycle;Signal;HPM_P1;HPM_P2
2023/04/08 00:01:34;;;;;;;19.50;18.00;;;;;;;4.03;100.00;100277.38;10498331;28;20078;-70
2023/04/08 00:06:36;;;;;;;20.23;18.35;;;;;;;3.97;100.00;100269.56;10498171;28;20090;-70
2023/04/08 00:11:38;;;;;;;20.67;18.88;;;;;;;4.10;100.00;100265.22;10497911;28;20116;-69
2023/04/08 00:16:40;;;;;;;20.60;18.63;;;;;;;4.07;100.00;100273.03;10480324;28;20049;-71
2023/04/08 00:21:42;;;;;;;20.05;18.20;;;;;;;3.99;100.00;100269.59;10480713;28;20128;-70
2023/04/08 00:26:43;;;;;;;20.98;18.92;;;;;;;4.04;100.00;100268.72;10498871;28;20051;-70
2023/04/08 00:31:45;;;;;;;22.52;20.58;;;;;;;4.06;100.00;100263.50;10479273;28;20509;-70
2023/04/08 00:36:47;;;;;;;19.52;17.75;;;;;;;4.13;100.00;100264.38;10479572;28;20049;-71
2023/04/08 00:41:49;;;;;;;20.75;18.77;;;;;;;4.21;100.00;100268.69;10479142;28;20387;-70
2023/04/08 00:46:50;;;;;;;18.85;17.13;;;;;;;4.14;100.00;100276.50;10502116;28;20517;-71
2023/04/08 00:51:54;;;;;;;19.50;16.70;;;;;;;4.18;100.00;100273.03;10487144;28;20059;-70
2023/04/08 00:56:56;;;;;;;19.48;17.55;;;;;;;4.25;100.00;100273.00;10504753;28;20410;-70
2023/04/08 01:02:07;;;;;;;16.85;15.20;;;;;;;4.25;100.00;100266.91;10486916;28;20131;-70
2023/04/08 01:07:16;;;;;;;16.20;14.60;;;;;;;4.24;100.00;100267.78;10470056;28;20044;-70
2023/04/08 01:12:26;;;;;;;17.75;16.05;;;;;;;4.24;100.00;100265.19;10504411;28;20052;-71
2023/04/08 01:17:30;;;;;;;19.13;16.95;;;;;;;4.25;100.00;100261.72;10486732;28;20052;-70
2023/04/08 01:22:54;;;;;;;18.88;17.10;;;;;;;4.42;100.00;100261.66;10486316;28;20135;-70
2023/04/08 01:27:57;;;;;;;16.88;15.30;;;;;;;4.44;100.00;100259.94;10486873;28;20052;-71
2023/04/08 01:33:01;;;;;;;16.30;14.55;;;;;;;4.40;100.00;100261.69;10503628;28;20112;-70
2023/04/08 01:38:07;;;;;;;17.05;15.55;;;;;;;4.30;100.00;100260.00;10503326;28;20044;-71
2023/04/08 01:43:13;;;;;;;17.05;15.43;;;;;;;4.46;100.00;100264.25;10485149;28;20052;-70
2023/04/08 01:48:15;;;;;;;17.40;15.80;;;;;;;4.40;100.00;100266.88;10468440;28;20419;-70
2023/04/08 01:53:17;;;;;;;18.80;16.42;;;;;;;4.63;100.00;100252.94;10485153;28;20078;-70
2023/04/08 01:58:20;;;;;;;16.77;15.07;;;;;;;4.47;100.00;100266.00;10501536;28;20083;-71
2023/04/08 02:03:24;;;;;;;16.17;14.48;;;;;;;4.41;100.00;100260.81;10484442;28;20086;-71
2023/04/08 02:08:26;;;;;;;16.10;14.70;;;;;;;4.43;100.00;100266.88;10484301;28;20131;-70
2023/04/08 02:13:30;;;;;;;16.05;14.45;;;;;;;4.47;100.00;100262.50;10484909;28;20428;-71
2023/04/08 02:18:35;;;;;;;15.57;14.18;;;;;;;4.60;100.00;100266.81;10502361;28;20045;-71
2023/04/08 02:23:39;;;;;;;15.13;13.73;;;;;;;4.53;100.00;100272.94;10467083;28;20059;-71
2023/04/08 02:28:42;;;;;;;16.60;13.90;;;;;;;4.54;100.00;100274.66;10467503;28;20052;-70
2023/04/08 02:33:44;;;;;;;17.05;14.48;;;;;;;4.44;100.00;100265.16;10501271;28;20074;-71
2023/04/08 02:38:49;;;;;;;16.52;15.02;;;;;;;4.46;100.00;100274.66;10482917;28;20036;-70
2023/04/08 02:43:54;;;;;;;13.80;12.57;;;;;;;4.64;100.00;100271.13;10501308;28;20413;-70
2023/04/08 02:48:56;;;;;;;15.32;13.93;;;;;;;4.67;100.00;100268.53;10482594;28;20071;-71
2023/04/08 02:53:57;;;;;;;14.27;12.88;;;;;;;4.42;100.00;100282.50;10482491;28;20518;-71
2023/04/08 02:58:59;;;;;;;14.30;12.85;;;;;;;4.37;100.00;100286.84;10482594;28;20041;-71
2023/04/08 03:04:01;;;;;;;13.38;12.07;;;;;;;4.51;100.00;100291.13;10500237;28;20048;-70
2023/04/08 03:09:04;;;;;;;13.70;12.32;;;;;;;4.47;100.00;100284.22;10500743;28;20120;-71
2023/04/08 03:14:06;;;;;;;14.52;13.13;;;;;;;4.62;100.00;100282.44;10499969;28;20066;-70
2023/04/08 03:19:08;;;;;;;13.57;12.05;;;;;;;4.55;100.00;100278.97;10499301;28;20048;-71
2023/04/08 03:24:10;;;;;;;12.45;11.35;;;;;;;4.65;100.00;100282.41;10499828;28;20055;-71
2023/04/08 03:29:11;;;;;;;11.35;10.35;;;;;;;4.65;100.00;100274.59;10499392;28;20036;-71
2023/04/08 03:34:13;;;;;;;10.23;9.38;;;;;;;4.52;100.00;100279.88;10480891;28;20071;-71
2023/04/08 03:39:15;;;;;;;11.10;10.10;;;;;;;4.48;100.00;100275.53;10498638;28;20036;-71
2023/04/08 03:44:17;;;;;;;10.43;9.43;;;;;;;4.50;100.00;100278.13;10498753;28;20044;-71
2023/04/08 03:49:19;;;;;;;10.30;9.35;;;;;;;4.41;100.00;100284.22;10499030;28;20405;-70
2023/04/08 03:54:20;;;;;;;10.40;9.50;;;;;;;4.52;100.00;100277.28;10498496;28;20045;-70
2023/04/08 03:59:22;;;;;;;10.30;9.30;;;;;;;4.64;100.00;100280.69;10498334;28;20041;-70
2023/04/08 04:04:24;;;;;;;9.68;8.88;;;;;;;4.50;100.00;100286.81;10498195;28;20050;-70
2023/04/08 04:09:26;;;;;;;9.23;8.38;;;;;;;4.66;100.00;100279.81;10498696;28;20115;-71
2023/04/08 04:14:27;;;;;;;10.18;9.35;;;;;;;4.62;100.00;100288.50;10480091;28;20048;-70
2023/04/08 04:19:30;;;;;;;10.52;9.63;;;;;;;4.51;100.00;100298.94;10479168;28;20063;-71
2023/04/08 04:24:32;;;;;;;10.25;9.35;;;;;;;4.54;100.00;100292.88;10479850;28;20109;-70
2023/04/08 04:29:33;;;;;;;11.30;10.30;;;;;;;4.49;100.00;100298.09;10498259;28;20052;-70
2023/04/08 04:34:35;;;;;;;11.75;10.65;;;;;;;4.57;100.00;100299.81;10479452;28;20056;-70
2023/04/08 04:39:37;;;;;;;12.60;11.50;;;;;;;4.50;100.00;100293.75;10497334;28;20094;-70
2023/04/08 04:44:39;;;;;;;12.38;11.18;;;;;;;4.51;100.00;100301.53;10497058;28;20064;-70
2023/04/08 04:49:40;;;;;;;12.25;11.18;;;;;;;4.62;100.00;100313.69;10496905;28;20036;-70
2023/04/08 04:54:42;;;;;;;13.50;12.40;;;;;;;4.59;100.00;100314.56;10480819;28;20044;-71
2023/04/08 04:59:47;;;;;;;13.10;11.85;;;;;;;4.58;100.00;100325.84;10500744;28;20100;-71
2023/04/08 05:04:52;;;;;;;11.85;10.82;;;;;;;4.91;100.00;100331.78;10499372;28;20047;-71
2023/04/08 05:09:54;;;;;;;12.02;10.82;;;;;;;4.85;100.00;100327.47;10498494;28;20040;-71
2023/04/08 05:14:59;;;;;;;11.90;10.43;;;;;;;4.70;100.00;100336.22;10500266;28;20066;-70
2023/04/08 05:20:01;;;;;;;12.00;10.85;;;;;;;4.74;100.00;100334.50;10481025;28;20143;-71
2023/04/08 05:25:05;;;;;;;12.20;11.10;;;;;;;4.69;100.00;100339.72;10499312;28;20055;-71
2023/04/08 05:30:08;;;;;;;12.30;11.10;;;;;;;4.66;100.00;100338.84;10507045;28;20086;-70
2023/04/08 05:35:12;;;;;;;11.65;10.55;;;;;;;4.69;100.00;100341.41;10513890;28;20158;-71
2023/04/08 05:40:15;;;;;;;12.52;11.30;;;;;;;4.75;100.00;100344.88;10494301;28;20036;-71
2023/04/08 05:45:17;;;;;;;11.95;10.68;;;;;;;4.85;100.00;100350.06;10513580;28;20075;-71
2023/04/08 05:50:20;;;;;;;12.27;11.07;;;;;;;4.88;100.00;100348.31;10488454;28;20041;-71
2023/04/08 05:55:21;;;;;;;11.18;10.07;;;;;;;4.85;100.00;100350.06;10505576;28;20045;-72
2023/04/08 06:00:24;;;;;;;13.15;11.82;;;;;;;4.81;100.00;100363.09;10487151;28;20052;-71
2023/04/08 06:05:26;;;;;;;14.18;12.80;;;;;;;5.04;100.00;100355.19;10488095;28;20044;-71
2023/04/08 06:10:27;;;;;;;12.38;11.27;;;;;;;5.02;100.00;100363.91;10487276;28;20096;-71
2023/04/08 06:15:31;;;;;;;12.98;11.77;;;;;;;4.98;100.00;100367.38;10485981;28;20052;-71
2023/04/08 06:20:35;;;;;;;13.13;11.93;;;;;;;5.21;100.00;100364.69;10505803;28;20489;-70
2023/04/08 06:25:37;;;;;;;13.70;12.40;;;;;;;5.12;100.00;100386.44;10504980;28;20509;-70
2023/04/08 06:30:39;;;;;;;15.85;14.25;;;;;;;5.12;100.00;100386.44;10486342;28;20040;-70
2023/04/08 06:35:41;;;;;;;15.15;13.65;;;;;;;5.19;100.00;100390.75;10503398;28;20444;-70
2023/04/08 06:40:42;;;;;;;21.27;16.20;;;;;;;5.28;100.00;100385.50;10502253;28;20045;-70
2023/04/08 06:45:44;;;;;;;19.50;17.67;;;;;;;5.44;100.00;100388.03;10483063;28;20475;-71
2023/04/08 06:50:46;;;;;;;23.73;20.70;;;;;;;5.64;100.00;100395.75;10500612;28;20083;-69
2023/04/08 06:55:48;;;;;;;22.05;19.92;;;;;;;5.93;100.00;100401.69;10483051;28;20054;-71
2023/04/08 07:00:50;;;;;;;24.48;20.42;;;;;;;5.89;100.00;100413.00;10482772;28;20071;-70
2023/04/08 07:05:52;;;;;;;24.73;22.20;;;;;;;5.85;100.00;100415.63;10501105;28;20044;-71
2023/04/08 07:10:53;;;;;;;23.52;21.10;;;;;;;6.09;100.00;100427.66;10501085;28;20048;-71
2023/04/08 07:15:55;;;;;;;28.00;23.63;;;;;;;6.06;100.00;100423.31;10482581;28;20041;-71
2023/04/08 07:20:57;;;;;;;27.02;24.25;;;;;;;6.04;100.00;100435.53;10499481;28;20040;-70
2023/04/08 07:26:04;;;;;;;26.67;24.13;;;;;;;6.17;100.00;100442.38;10499139;28;20040;-71
2023/04/08 07:31:16;;;;;;;28.85;24.00;;;;;;;6.25;100.00;100440.59;10500071;28;20086;-71
2023/04/08 07:36:18;;;;;;;29.77;23.77;;;;;;;6.20;100.00;100450.22;10499820;28;20045;-71
2023/04/08 07:41:20;;;;;;;24.50;22.20;;;;;;;6.47;100.00;100448.25;10499362;28;20044;-70
2023/04/08 07:46:21;;;;;;;25.50;23.05;;;;;;;6.40;100.00;100459.63;10499396;28;20071;-70
2023/04/08 07:51:23;;;;;;;26.38;23.13;;;;;;;6.55;100.00;100470.81;10499600;28;20037;-70
2023/04/08 07:56:25;;;;;;;17.88;16.17;;;;;;;6.80;100.00;100475.81;10498868;28;20044;-70
2023/04/08 08:01:29;;;;;;;12.15;11.18;;;;;;;6.62;100.00;100474.22;10480070;28;20447;-70
2023/04/08 08:06:32;;;;;;;9.38;8.68;;;;;;;6.78;100.00;100481.06;10499009;28;20440;-70
2023/04/08 08:11:34;;;;;;;8.10;7.50;;;;;;;6.62;100.00;100483.81;10499267;28;20120;-70
2023/04/08 08:16:37;;;;;;;7.45;6.85;;;;;;;6.81;100.00;100491.47;10497977;28;20445;-70
2023/04/08 08:21:39;;;;;;;7.20;6.60;;;;;;;6.99;100.00;100487.81;10498036;28;20044;-70
2023/04/08 08:26:41;;;;;;;7.63;7.03;;;;;;;6.93;100.00;100495.72;10497295;28;20045;-70
2023/04/08 08:31:43;;;;;;;6.82;6.32;;;;;;;7.26;98.50;100496.25;10501102;28;20040;-70
2023/04/08 08:36:45;;;;;;;6.28;5.72;;;;;;;7.39;97.73;100497.84;10539181;28;20055;-70
2023/04/08 08:41:46;;;;;;;6.32;5.78;;;;;;;7.56;96.06;100503.75;10539464;28;20044;-70
2023/04/08 08:46:48;;;;;;;6.78;6.28;;;;;;;7.30;97.52;100514.53;10538991;28;20051;-71
2023/04/08 08:51:53;;;;;;;6.28;5.68;;;;;;;7.39;95.61;100505.69;10520996;28;20050;-71
2023/04/08 08:56:54;;;;;;;7.68;7.07;;;;;;;7.55;93.98;100520.34;10539124;28;20070;-71
2023/04/08 09:01:56;;;;;;;7.97;7.38;;;;;;;7.69;91.88;100524.53;10538679;28;20107;-71
2023/04/08 09:07:09;;;;;;;9.20;8.50;;;;;;;7.76;88.27;100534.06;10542800;28;20044;-71
2023/04/08 09:12:12;;;;;;;9.18;8.48;;;;;;;7.83;90.08;100539.22;10546905;28;20047;-70
2023/04/08 09:17:16;;;;;;;9.77;8.98;;;;;;;7.87;85.54;100547.84;10546176;28;20058;-71
2023/04/08 09:22:17;;;;;;;10.50;9.70;;;;;;;7.82;86.63;100547.06;10545769;28;20044;-71
2023/04/08 09:27:35;;;;;;;8.95;8.25;;;;;;;7.53;87.17;100556.13;10546917;28;20072;-71
2023/04/08 09:32:48;;;;;;;10.25;9.45;;;;;;;7.66;88.93;100554.25;10545672;28;20036;-71
2023/04/08 09:37:50;;;;;;;9.65;8.85;;;;;;;7.72;88.72;100555.91;10545504;28;20493;-71
2023/04/08 09:42:54;;;;;;;9.85;8.95;;;;;;;7.79;86.28;100558.44;10526915;28;20044;-70
2023/04/08 09:48:11;;;;;;;9.15;8.35;;;;;;;8.00;85.32;100556.44;10545288;28;20105;-71
2023/04/08 09:53:25;;;;;;;11.05;8.85;;;;;;;7.94;84.26;100561.75;10545341;28;20036;-71
2023/04/08 09:58:57;;;;;;;9.95;9.15;;;;;;;7.95;83.75;100569.56;10545427;28;20093;-71
2023/04/08 10:04:00;;;;;;;11.00;10.10;;;;;;;8.04;84.59;100568.59;10544117;28;20047;-71
2023/04/08 10:09:03;;;;;;;12.00;10.90;;;;;;;8.17;86.57;100562.31;10544222;28;20460;-71
2023/04/08 10:14:04;;;;;;;12.30;11.18;;;;;;;8.30;83.38;100563.88;10544842;28;20044;-72
2023/04/08 10:19:36;;;;;;;16.10;12.88;;;;;;;8.31;85.94;100572.59;10524696;28;20105;-72
2023/04/08 10:24:37;;;;;;;12.48;11.48;;;;;;;8.13;82.81;100578.94;10526169;28;20045;-71
2023/04/08 10:29:39;;;;;;;12.93;11.82;;;;;;;8.14;83.61;100578.06;10543654;28;20052;-71
2023/04/08 10:34:51;;;;;;;10.68;9.77;;;;;;;8.16;79.52;100580.69;10543437;28;20051;-71
2023/04/08 10:39:53;;;;;;;11.70;10.75;;;;;;;8.23;80.17;100583.16;10544072;28;20046;-71
2023/04/08 10:44:59;;;;;;;11.82;10.93;;;;;;;8.31;80.13;100577.84;10543371;28;20047;-72
2023/04/08 10:50:12;;;;;;;10.37;9.57;;;;;;;8.29;78.53;100577.88;10524354;22;20063;-74
2023/04/08 10:55:14;;;;;;;10.77;9.88;;;;;;;8.25;80.49;100578.78;10502787;28;20048;-75
2023/04/08 11:00:31;;;;;;;10.68;9.77;;;;;;;8.54;77.08;100575.81;10502839;28;20553;-74
2023/04/08 11:05:35;;;;;;;10.68;9.60;;;;;;;8.58;75.78;100579.22;10505238;28;20436;-75
2023/04/08 11:10:37;;;;;;;10.25;9.45;;;;;;;8.48;77.15;100586.34;10485592;28;20044;-74
2023/04/08 11:15:41;;;;;;;10.10;9.20;;;;;;;8.21;75.53;100581.47;10502337;28;20049;-74
2023/04/08 11:20:44;;;;;;;10.00;9.20;;;;;;;8.20;74.79;100587.59;10503681;28;20460;-75
2023/04/08 11:25:46;;;;;;;10.68;9.88;;;;;;;8.08;77.36;100586.00;10484451;28;20058;-75
2023/04/08 11:30:49;;;;;;;13.63;12.02;;;;;;;8.06;79.15;100599.13;10504392;28;20075;-74
2023/04/08 11:35:51;;;;;;;14.25;13.15;;;;;;;7.89;79.77;100597.59;10502630;28;20072;-75
2023/04/08 11:41:00;;;;;;;16.73;15.13;;;;;;;7.94;82.70;100598.41;10500943;28;20040;-75
2023/04/08 11:46:11;;;;;;;19.08;17.60;;;;;;;7.88;85.19;100612.44;10483383;28;20056;-74
2023/04/08 11:51:13;;;;;;;19.35;17.85;;;;;;;7.87;84.96;100615.06;10504828;28;20037;-76
2023/04/08 11:56:20;;;;;;;20.08;18.40;;;;;;;8.20;82.46;100613.78;10501647;28;20444;-74
2023/04/08 12:01:22;;;;;;;19.50;17.90;;;;;;;8.19;83.26;100609.41;10501944;28;20045;-74
2023/04/08 12:06:23;;;;;;;19.75;18.15;;;;;;;8.25;81.74;100609.34;10501241;28;20051;-76
2023/04/08 12:11:25;;;;;;;20.30;18.55;;;;;;;8.43;80.77;100606.53;10503439;28;20044;-76
2023/04/08 12:16:27;;;;;;;19.40;18.00;;;;;;;8.53;81.86;100618.59;10500837;28;20397;-74
2023/04/08 12:21:32;;;;;;;19.23;17.75;;;;;;;8.38;81.16;100618.81;10501457;28;20405;-75
2023/04/08 12:26:34;;;;;;;19.77;18.25;;;;;;;8.46;81.45;100616.09;10482853;28;20098;-75
2023/04/08 12:31:36;;;;;;;23.30;21.40;;;;;;;7.92;84.62;100631.56;10501044;28;20045;-75
2023/04/08 12:36:38;;;;;;;22.25;20.27;;;;;;;8.11;85.95;100635.72;10501443;28;20486;-76
2023/04/08 12:41:42;;;;;;;20.95;19.00;;;;;;;7.92;88.06;100627.19;10485174;28;20041;-75
2023/04/08 12:46:44;;;;;;;24.02;21.83;;;;;;;7.73;89.97;100631.78;10474543;28;20055;-75
2023/04/08 12:51:45;;;;;;;23.30;21.20;;;;;;;7.86;87.92;100639.50;10509415;28;20041;-75
2023/04/08 12:56:47;;;;;;;23.60;21.63;;;;;;;7.88;87.53;100640.34;10491990;28;20059;-76
2023/04/08 13:01:49;;;;;;;24.58;22.35;;;;;;;7.76;89.41;100643.97;10490768;28;20045;-76
2023/04/08 13:06:51;;;;;;;25.13;23.17;;;;;;;7.64;88.76;100652.81;10489795;28;20075;-75
2023/04/08 13:11:53;;;;;;;26.33;23.75;;;;;;;7.49;89.34;100652.97;10506890;28;20047;-75
2023/04/08 13:16:55;;;;;;;27.38;24.40;;;;;;;7.36;89.98;100654.81;10496276;28;20045;-75
2023/04/08 13:21:58;;;;;;;24.50;22.02;;;;;;;7.61;88.88;100655.44;10480967;28;20067;-75
2023/04/08 13:27:01;;;;;;;26.95;24.15;;;;;;;7.55;88.47;100653.75;10480820;28;20090;-75
2023/04/08 13:32:03;;;;;;;25.80;22.75;;;;;;;7.80;87.72;100657.00;10496769;28;20451;-74
2023/04/08 13:37:06;;;;;;;22.73;20.67;;;;;;;7.89;86.77;100665.66;10515227;28;20040;-74
2023/04/08 13:42:08;;;;;;;22.60;20.33;;;;;;;8.01;85.23;100666.38;10516489;28;20059;-74
2023/04/08 13:47:11;;;;;;;21.08;19.15;;;;;;;7.97;84.77;100664.69;10479292;28;20048;-74
2023/04/08 13:52:13;;;;;;;21.02;19.35;;;;;;;8.20;84.37;100667.03;10513143;28;20040;-74
2023/04/08 13:57:15;;;;;;;20.02;18.33;;;;;;;8.21;83.68;100658.28;10512016;28;20086;-75
2023/04/08 14:02:17;;;;;;;20.30;18.70;;;;;;;8.34;82.12;100664.25;10495355;28;20064;-72
2023/04/08 14:07:19;;;;;;;19.48;17.77;;;;;;;8.36;81.69;100662.44;10504365;28;20044;-72
2023/04/08 14:12:20;;;;;;;17.45;15.93;;;;;;;8.30;79.65;100667.78;10505068;28;20040;-72
2023/04/08 14:17:22;;;;;;;16.75;15.45;;;;;;;7.85;81.20;100675.28;10486926;28;20413;-72
2023/04/08 14:22:24;;;;;;;17.85;16.10;;;;;;;7.74;80.90;100677.13;10488766;28;20045;-72
2023/04/08 14:27:26;;;;;;;16.85;15.52;;;;;;;7.47;82.24;100673.88;10504711;28;20044;-72
2023/04/08 14:32:28;;;;;;;17.60;16.20;;;;;;;7.40;82.69;100682.69;10486749;28;20405;-72
2023/04/08 14:37:30;;;;;;;15.93;14.52;;;;;;;7.47;82.02;100684.34;10486547;28;20049;-72
2023/04/08 14:42:32;;;;;;;16.58;15.18;;;;;;;7.69;81.94;100682.41;10506188;28;20047;-74
2023/04/08 14:47:33;;;;;;;15.88;14.52;;;;;;;7.75;81.83;100682.38;10508196;28;20127;-72
2023/04/08 14:52:35;;;;;;;16.48;15.00;;;;;;;7.65;81.41;100688.53;10487723;28;20045;-72
2023/04/08 14:57:37;;;;;;;16.35;15.05;;;;;;;7.26;82.51;100695.88;10487140;28;20127;-72
2023/04/08 15:02:38;;;;;;;16.52;15.05;;;;;;;7.33;82.78;100686.22;10504587;28;20036;-72
2023/04/08 15:07:41;;;;;;;14.02;12.90;;;;;;;7.23;81.01;100689.78;10486542;28;20139;-74
2023/04/08 15:12:43;;;;;;;13.68;12.52;;;;;;;7.24;80.76;100686.28;10483754;28;20044;-73
2023/04/08 15:17:45;;;;;;;14.63;13.40;;;;;;;7.28;80.97;100696.72;10485543;28;20040;-72
2023/04/08 15:22:47;;;;;;;14.60;13.40;;;;;;;7.24;80.63;100694.13;10483562;28;20048;-71
2023/04/08 15:27:49;;;;;;;14.38;13.27;;;;;;;7.26;79.57;100697.59;10502734;28;20068;-73
2023/04/08 15:32:51;;;;;;;15.70;14.50;;;;;;;7.04;79.68;100707.38;10501756;28;20041;-73
2023/04/08 15:37:53;;;;;;;16.65;15.32;;;;;;;7.14;80.37;100705.56;10484444;28;20045;-73
2023/04/08 15:42:55;;;;;;;16.25;14.95;;;;;;;7.16;78.57;100717.72;10507011;28;20552;-73
2023/04/08 15:47:58;;;;;;;17.77;16.38;;;;;;;7.18;79.82;100717.72;10503454;28;20071;-73
2023/04/08 15:53:00;;;;;;;18.17;16.67;;;;;;;7.28;79.65;100716.78;10501960;28;20041;-73
2023/04/08 15:58:01;;;;;;;16.75;15.55;;;;;;;7.33;78.44;100717.59;10505671;28;20452;-73
2023/04/08 16:03:04;;;;;;;17.40;16.10;;;;;;;7.19;78.45;100725.56;10500557;28;20047;-73
2023/04/08 16:08:06;;;;;;;18.70;17.30;;;;;;;7.15;75.57;100733.44;10484321;28;20052;-72
2023/04/08 16:13:08;;;;;;;18.42;16.92;;;;;;;7.10;77.15;100735.22;10506295;28;20044;-72
2023/04/08 16:18:10;;;;;;;17.90;16.50;;;;;;;7.13;76.95;100750.84;10504139;28;20041;-72
2023/04/08 16:23:14;;;;;;;19.30;17.85;;;;;;;7.03;77.52;100755.28;10511231;28;20044;-73
2023/04/08 16:28:16;;;;;;;18.40;16.75;;;;;;;7.12;77.85;100760.44;10502883;28;20044;-72
2023/04/08 16:33:22;;;;;;;17.77;16.38;;;;;;;6.84;79.03;100759.75;10503486;28;20075;-73
2023/04/08 16:38:25;;;;;;;18.08;16.65;;;;;;;6.93;78.76;100764.06;10484442;28;20068;-73
2023/04/08 16:43:28;;;;;;;18.48;17.00;;;;;;;6.99;79.07;100764.88;10486074;28;20041;-72
2023/04/08 16:48:29;;;;;;;19.20;17.60;;;;;;;6.64;80.77;100775.53;10515731;22;20045;-72
2023/04/08 16:53:31;;;;;;;18.85;17.38;;;;;;;6.70;81.35;100767.66;10500864;28;20493;-73
2023/04/08 16:58:33;;;;;;;18.73;17.33;;;;;;;6.69;81.37;100772.88;10498435;28;20037;-73
2023/04/08 17:03:35;;;;;;;17.83;16.42;;;;;;;6.71;81.77;100773.75;10498270;28;20045;-73
2023/04/08 17:08:37;;;;;;;18.83;17.23;;;;;;;6.68;81.89;100784.19;10497810;28;20497;-72
2023/04/08 17:13:41;;;;;;;20.48;18.50;;;;;;;6.61;81.83;100780.75;10497131;28;20044;-73
2023/04/08 17:18:44;;;;;;;18.60;17.13;;;;;;;6.53;82.77;100790.34;10479484;28;20102;-72
2023/04/08 17:23:46;;;;;;;19.80;18.23;;;;;;;6.55;83.86;100794.69;10479592;28;20092;-72
2023/04/08 17:28:48;;;;;;;19.25;17.80;;;;;;;6.68;83.35;100800.72;10482768;28;20056;-72
2023/04/08 17:33:50;;;;;;;18.35;16.85;;;;;;;6.66;82.92;100804.25;10486745;28;20066;-72
2023/04/08 17:38:52;;;;;;;19.92;17.88;;;;;;;6.54;82.92;100807.75;10504872;28;20137;-72
2023/04/08 17:43:54;;;;;;;19.80;18.30;;;;;;;6.40;83.55;100812.16;10469500;28;20044;-73
2023/04/08 17:48:56;;;;;;;20.15;18.45;;;;;;;6.40;82.84;100815.63;10489559;28;20049;-73
2023/04/08 17:53:58;;;;;;;19.13;17.58;;;;;;;6.21;84.01;100821.75;10507513;28;20044;-73
2023/04/08 17:59:00;;;;;;;20.02;18.00;;;;;;;6.22;84.62;100831.31;10506880;28;20045;-72
2023/04/08 18:04:05;;;;;;;19.35;17.80;;;;;;;6.16;85.81;100832.22;10503989;28;20383;-72
2023/04/08 18:09:07;;;;;;;19.35;17.75;;;;;;;6.18;86.40;100838.28;10503870;28;20048;-72
2023/04/08 18:14:09;;;;;;;19.98;18.35;;;;;;;6.11;86.34;100854.84;10469101;28;20052;-72
2023/04/08 18:19:11;;;;;;;19.77;18.20;;;;;;;6.09;86.98;100853.09;10503395;28;20064;-72
2023/04/08 18:24:14;;;;;;;20.05;18.25;;;;;;;6.10;86.98;100854.81;10502955;28;20040;-73
2023/04/08 18:29:16;;;;;;;19.52;17.95;;;;;;;6.18;86.00;100860.91;10485293;28;20442;-73
2023/04/08 18:34:19;;;;;;;19.67;18.08;;;;;;;6.17;85.98;100864.41;10503188;28;20040;-73
2023/04/08 18:39:21;;;;;;;18.85;17.35;;;;;;;6.03;86.66;100878.31;10502166;28;20059;-73
2023/04/08 18:44:23;;;;;;;19.05;17.35;;;;;;;5.93;86.73;100875.69;10484557;28;20383;-72
2023/04/08 18:49:25;;;;;;;20.02;18.38;;;;;;;5.82;88.14;100886.09;10483681;28;20049;-72
2023/04/08 18:54:26;;;;;;;20.02;18.35;;;;;;;6.09;86.85;100892.25;10501908;28;20405;-74
2023/04/08 18:59:29;;;;;;;20.05;18.45;;;;;;;5.88;87.39;100898.28;10482702;28;20059;-73
2023/04/08 19:04:32;;;;;;;21.05;19.27;;;;;;;5.94;87.20;100893.97;10482397;28;20041;-75
2023/04/08 19:09:34;;;;;;;21.73;19.92;;;;;;;5.83;87.77;100903.50;10483347;28;20408;-74
2023/04/08 19:14:36;;;;;;;22.73;20.35;;;;;;;5.73;88.67;100906.97;10499900;28;20045;-75
2023/04/08 19:19:38;;;;;;;21.80;19.75;;;;;;;5.77;88.35;100903.50;10499873;28;20044;-73
2023/04/08 19:24:39;;;;;;;21.95;20.05;;;;;;;5.62;89.00;100909.53;10522243;28;20059;-76
2023/04/08 19:29:41;;;;;;;21.85;20.05;;;;;;;5.74;88.38;100893.03;10514427;28;20044;-76
2023/04/08 19:34:43;;;;;;;24.00;21.92;;;;;;;5.67;88.27;100902.59;10541721;28;20042;-75
2023/04/08 19:39:45;;;;;;;25.67;23.02;;;;;;;5.49;89.31;100903.44;10513583;28;20068;-75
2023/04/08 19:44:47;;;;;;;25.73;23.27;;;;;;;5.18;90.70;100896.34;10481209;28;20044;-75
2023/04/08 19:49:49;;;;;;;26.08;22.95;;;;;;;5.12;91.89;100896.34;10498327;28;20094;-75
2023/04/08 19:54:51;;;;;;;25.23;23.20;;;;;;;5.06;91.95;100895.44;10491369;28;20485;-76
2023/04/08 19:59:53;;;;;;;30.02;27.08;;;;;;;5.05;92.86;100905.88;10522972;28;20051;-74
2023/04/08 20:04:56;;;;;;;31.17;28.13;;;;;;;5.22;92.59;100909.44;10540427;28;20043;-75
2023/04/08 20:09:57;;;;;;;29.73;26.67;;;;;;;4.66;95.14;100916.94;10523508;28;20040;-74
2023/04/08 20:15:00;;;;;;;28.35;25.35;;;;;;;4.63;96.55;100911.69;10540179;28;20118;-76
2023/04/08 20:20:04;;;;;;;28.23;25.52;;;;;;;4.46;97.30;100912.44;10540434;28;20040;-75
2023/04/08 20:25:05;;;;;;;26.95;24.25;;;;;;;4.46;97.42;100912.44;10540712;28;20036;-75
2023/04/08 20:30:08;;;;;;;25.90;23.55;;;;;;;4.43;97.48;100915.06;10522724;28;20083;-75
2023/04/08 20:35:10;;;;;;;25.88;23.30;;;;;;;4.29;97.63;100912.34;10540646;28;20060;-76
2023/04/08 20:40:12;;;;;;;30.00;27.02;;;;;;;4.06;98.77;100898.25;10522097;28;20048;-74
2023/04/08 20:45:15;;;;;;;30.27;27.30;;;;;;;3.89;99.02;100905.03;10539708;28;20068;-74
2023/04/08 20:50:17;;;;;;;28.70;25.95;;;;;;;3.71;100.00;100910.94;10522240;28;20409;-74
2023/04/08 20:55:18;;;;;;;29.13;26.23;;;;;;;3.93;99.30;100910.28;10540071;28;20055;-74
2023/04/08 21:00:20;;;;;;;26.52;23.88;;;;;;;3.52;100.00;100915.94;10522263;28;20463;-76
2023/04/08 21:05:22;;;;;;;27.27;24.67;;;;;;;3.56;100.00;100906.47;10546386;28;20042;-75
2023/04/08 21:10:24;;;;;;;31.88;28.50;;;;;;;3.76;100.00;100909.25;10529960;28;20055;-73
2023/04/08 21:15:26;;;;;;;31.98;28.52;;;;;;;3.45;100.00;100908.94;10547355;28;20047;-74
2023/04/08 21:20:28;;;;;;;34.95;29.17;;;;;;;3.08;100.00;100920.63;10528943;28;20519;-74
2023/04/08 21:25:30;;;;;;;37.05;29.45;;;;;;;3.34;100.00;100935.66;10528483;28;20048;-74
2023/04/08 21:30:31;;;;;;;36.83;29.50;;;;;;;2.91;100.00;100940.28;10546575;28;20051;-74
2023/04/08 21:35:33;;;;;;;47.22;31.98;;;;;;;3.06;100.00;100930.13;10547176;28;20043;-73
2023/04/08 21:40:35;;;;;;;38.83;30.33;;;;;;;3.29;100.00;100925.22;10546537;28;20040;-73
2023/04/08 21:45:37;;;;;;;40.08;29.40;;;;;;;3.14;100.00;100938.88;10529151;28;20410;-74
2023/04/08 21:50:40;;;;;;;43.05;31.13;;;;;;;3.06;100.00;100948.31;10546149;28;20035;-75
2023/04/08 21:55:42;;;;;;;36.80;29.88;;;;;;;2.77;100.00;100940.97;10545728;28;20036;-75
2023/04/08 22:00:44;;;;;;;35.67;29.48;;;;;;;2.51;100.00;100942.31;10546140;28;20486;-74
2023/04/08 22:05:45;;;;;;;41.17;31.27;;;;;;;2.69;100.00;100927.00;10527691;28;20097;-74
2023/04/08 22:10:47;;;;;;;40.35;30.10;;;;;;;2.73;100.00;100935.72;10545044;28;20044;-75
2023/04/08 22:15:49;;;;;;;42.28;31.25;;;;;;;2.69;100.00;100924.41;10544110;28;20093;-73
2023/04/08 22:20:51;;;;;;;47.88;32.03;;;;;;;2.66;100.00;100923.50;10526761;28;20044;-73
2023/04/08 22:25:53;;;;;;;34.70;29.38;;;;;;;2.52;100.00;100925.88;10526793;28;20078;-74
2023/04/08 22:30:55;;;;;;;36.50;30.77;;;;;;;2.27;100.00;100925.50;10526436;28;20044;-74
2023/04/08 22:35:56;;;;;;;41.88;30.77;;;;;;;2.21;100.00;100919.34;10526312;28;20052;-74
2023/04/08 22:40:58;;;;;;;41.85;31.27;;;;;;;2.20;100.00;100915.88;10544363;28;20048;-74
2023/04/08 22:46:00;;;;;;;48.17;32.20;;;;;;;2.32;100.00;100910.00;10544102;28;20044;-73
2023/04/08 22:51:02;;;;;;;43.42;31.00;;;;;;;2.02;100.00;100905.19;10557255;28;20036;-80